Time;durP1;ratioP1;P1;durP2;ratioP2;P2;SDS_P1;SDS_P2;PMS_P1;PMS_P2;Temp;Humidity;BMP_temperature;BMP_pressure;BME280_temperature;BME280_humidity;BME280_pressure;Samples;Min_cycle;Max_cycle;Signal;HPM_P1;HPM_P2
2023/01/19 00:00:09;;;;;;;1.90;1.10;;;3.30;39.30;;;;;;4956031;28;20191;-70
2023/01/19 00:02:36;;;;;;;2.00;1.20;;;3.30;39.20;;;;;;4955087;29;20167;-70
2023/01/19 00:05:02;;;;;;;2.00;1.20;;;3.20;39.80;;;;;;4950454;28;20214;-70
2023/01/19 00:07:29;;;;;;;1.90;1.00;;;3.30;39.30;;;;;;4953792;29;20289;-69
2023/01/19 00:09:55;;;;;;;1.80;1.10;;;3.30;39.20;;;;;;4953499;29;20187;-70
2023/01/19 00:12:21;;;;;;;4.37;1.90;;;3.30;39.50;;;;;;4954262;29;20179;-70
2023/01/19 00:14:46;;;;;;;4.90;1.87;;;3.30;38.90;;;;;;4948860;29;20246;-70
2023/01/19 00:17:12;;;;;;;1.90;1.00;;;3.70;39.10;;;;;;4949921;29;20242;-70
2023/01/19 00:19:37;;;;;;;2.90;1.60;;;3.30;38.80;;;;;;4942317;29;20613;-70
2023/01/19 00:22:04;;;;;;;2.93;1.70;;;3.20;39.60;;;;;;4943058;29;20663;-70
2023/01/19 00:24:31;;;;;;;2.15;1.45;;;3.30;40.20;;;;;;4950801;29;20699;-70
2023/01/19 00:26:56;;;;;;;2.00;1.13;;;3.20;39.10;;;;;;4948896;29;20233;-69
2023/01/19 00:29:22;;;;;;;2.03;1.20;;;3.30;39.20;;;;;;4947719;29;20212;-70
2023/01/19 00:31:48;;;;;;;1.90;1.10;;;3.40;38.90;;;;;;4946362;29;20175;-70
2023/01/19 00:34:14;;;;;;;1.97;1.10;;;3.30;39.10;;;;;;4952930;29;20190;-70
2023/01/19 00:36:40;;;;;;;2.20;1.30;;;3.20;39.30;;;;;;4947940;29;20731;-70
2023/01/19 00:39:06;;;;;;;2.00;1.10;;;3.20;39.50;;;;;;4942879;29;20280;-70
2023/01/19 00:44:16;;;;;;;2.00;1.10;;;3.10;39.50;;;;;;4945002;29;20226;-70
2023/01/19 00:46:42;;;;;;;2.00;1.10;;;3.10;39.20;;;;;;4953684;28;20573;-70
2023/01/19 00:49:07;;;;;;;2.07;1.20;;;3.00;39.20;;;;;;4951613;29;20190;-70
2023/01/19 00:51:33;;;;;;;2.50;1.53;;;3.00;39.30;;;;;;4951410;29;20183;-70
2023/01/19 00:54:03;;;;;;;2.10;1.30;;;3.00;39.40;;;;;;4948796;29;20453;-70
2023/01/19 00:56:30;;;;;;;2.38;1.50;;;3.00;38.80;;;;;;4952047;29;20214;-70
2023/01/19 00:58:55;;;;;;;2.00;1.10;;;3.10;39.80;;;;;;4950115;28;20278;-70
2023/01/19 01:01:21;;;;;;;2.87;1.83;;;3.30;38.40;;;;;;4953684;29;20318;-70
2023/01/19 01:03:46;;;;;;;2.67;1.40;;;3.30;38.10;;;;;;4928002;29;20203;-70
2023/01/19 01:06:12;;;;;;;1.90;1.10;;;3.10;38.50;;;;;;4952532;28;20718;-70
2023/01/19 01:08:38;;;;;;;2.10;1.20;;;2.90;39.30;;;;;;4933765;29;20191;-70
2023/01/19 01:11:03;;;;;;;2.50;1.50;;;2.80;39.20;;;;;;4943768;29;20183;-70
2023/01/19 01:13:29;;;;;;;2.50;1.40;;;2.90;39.40;;;;;;4947509;29;20188;-69
2023/01/19 01:15:56;;;;;;;3.23;2.13;;;3.20;38.40;;;;;;4953512;28;20218;-70
2023/01/19 01:18:22;;;;;;;2.38;1.45;;;3.20;37.90;;;;;;4952794;29;20429;-70
2023/01/19 01:20:48;;;;;;;3.35;2.00;;;3.00;39.00;;;;;;4946172;29;20226;-70
2023/01/19 01:23:14;;;;;;;2.50;1.50;;;3.20;38.20;;;;;;4951416;29;20582;-70
2023/01/19 01:25:41;;;;;;;2.10;1.20;;;3.20;37.80;;;;;;4950970;29;20619;-70
2023/01/19 01:28:07;;;;;;;3.30;1.63;;;3.00;38.30;;;;;;4951450;28;20575;-70
2023/01/19 01:30:34;;;;;;;2.03;1.20;;;2.80;39.20;;;;;;4950337;29;20666;-70
2023/01/19 01:33:00;;;;;;;2.30;1.40;;;2.90;38.90;;;;;;4952950;29;20270;-70
2023/01/19 01:35:26;;;;;;;2.10;1.20;;;2.80;38.60;;;;;;4950345;28;20659;-70
2023/01/19 01:37:52;;;;;;;2.00;1.20;;;2.70;39.50;;;;;;4950158;29;20273;-70
2023/01/19 01:40:18;;;;;;;2.20;1.30;;;2.90;38.80;;;;;;4953327;29;20430;-70
2023/01/19 01:42:44;;;;;;;2.72;1.77;;;2.90;38.60;;;;;;4948703;29;20199;-70
2023/01/19 01:45:33;;;;;;;2.30;1.40;;;2.90;38.30;;;;;;4949942;28;20286;-70
2023/01/19 01:48:11;;;;;;;3.40;2.28;;;3.00;37.70;;;;;;4953327;29;20215;-69
2023/01/19 01:51:22;;;;;;;2.00;1.17;;;2.90;38.20;;;;;;4952063;29;20195;-71
2023/01/19 01:53:32;;;;;;;1.90;1.00;;;2.80;38.60;;;;;;4949334;29;20218;-69
2023/01/19 01:55:59;;;;;;;2.25;1.35;;;2.80;38.20;;;;;;4947720;28;20579;-69
2023/01/19 01:58:26;;;;;;;2.22;1.35;;;2.80;38.50;;;;;;4952629;29;20223;-69
2023/01/19 02:03:36;;;;;;;2.00;1.10;;;2.90;37.90;;;;;;4950963;29;20222;-70
2023/01/19 02:06:06;;;;;;;2.53;1.67;;;2.70;38.60;;;;;;4951299;29;20180;-70
2023/01/19 02:14:06;;;;;;;2.10;1.20;;;2.40;38.70;;;;;;4951278;29;20202;-70
2023/01/19 02:16:32;;;;;;;2.93;1.70;;;2.70;38.50;;;;;;4947979;29;20218;-70
2023/01/19 02:18:59;;;;;;;2.00;1.10;;;2.50;38.20;;;;;;4944346;29;20531;-70
2023/01/19 02:21:25;;;;;;;2.30;1.40;;;2.60;38.20;;;;;;4951922;29;20188;-71
2023/01/19 02:23:53;;;;;;;6.00;2.43;;;2.80;37.50;;;;;;4950705;29;20208;-70
2023/01/19 02:26:32;;;;;;;2.63;1.42;;;2.70;37.60;;;;;;4949458;29;20188;-73
2023/01/19 02:29:05;;;;;;;2.50;1.30;;;2.40;38.60;;;;;;4921587;29;20187;-70
2023/01/19 02:31:32;;;;;;;2.10;1.20;;;2.30;38.70;;;;;;4953468;29;20721;-69
2023/01/19 02:34:00;;;;;;;2.40;1.20;;;2.40;38.40;;;;;;4955997;29;20201;-70
2023/01/19 02:36:33;;;;;;;2.00;1.05;;;2.70;37.50;;;;;;4948468;29;20271;-70
2023/01/19 02:39:00;;;;;;;2.10;1.20;;;2.70;37.20;;;;;;4950508;29;20282;-70
2023/01/19 02:41:29;;;;;;;6.72;2.75;;;2.70;36.80;;;;;;4956121;29;20175;-70
2023/01/19 02:43:57;;;;;;;4.18;1.42;;;2.60;37.20;;;;;;4950030;29;20208;-70
2023/01/19 02:46:23;;;;;;;2.30;1.40;;;2.60;37.20;;;;;;4944404;29;20180;-71
2023/01/19 02:48:49;;;;;;;2.20;1.40;;;2.30;38.20;;;;;;4955940;28;20184;-70
2023/01/19 02:51:19;;;;;;;2.03;1.13;;;2.20;38.60;;;;;;4956192;28;20178;-70
2023/01/19 02:54:00;;;;;;;2.80;1.83;;;2.20;38.90;;;;;;4955915;28;20266;-70
2023/01/19 02:56:35;;;;;;;2.10;1.20;;;2.20;38.70;;;;;;4951903;28;20179;-72
2023/01/19 02:59:01;;;;;;;2.00;1.20;;;2.50;37.30;;;;;;4955968;29;20540;-70
2023/01/19 03:01:34;;;;;;;2.13;1.30;;;2.30;37.70;;;;;;4949144;29;20187;-71
2023/01/19 03:04:17;;;;;;;2.50;1.60;;;2.50;37.70;;;;;;4954851;28;20529;-70
2023/01/19 03:06:48;;;;;;;2.10;1.20;;;2.60;36.90;;;;;;4945287;29;20206;-70
2023/01/19 03:09:22;;;;;;;2.00;1.10;;;2.40;37.10;;;;;;4953698;29;20180;-70
2023/01/19 03:11:54;;;;;;;2.88;1.60;;;2.60;36.40;;;;;;4955670;28;20207;-70
2023/01/19 03:14:23;;;;;;;2.28;1.38;;;2.50;36.60;;;;;;4955585;28;20658;-70
2023/01/19 03:16:58;;;;;;;2.00;1.10;;;2.50;36.60;;;;;;4955566;28;20199;-70
2023/01/19 03:19:33;;;;;;;2.00;1.10;;;2.60;36.90;;;;;;4950408;28;20175;-70
2023/01/19 03:22:20;;;;;;;2.00;1.10;;;2.40;36.90;;;;;;4955314;29;20194;-71
2023/01/19 03:24:46;;;;;;;2.00;1.00;;;2.40;37.10;;;;;;4940664;29;20297;-70
2023/01/19 03:27:39;;;;;;;3.05;2.20;;;2.30;37.50;;;;;;4955344;29;20262;-70
2023/01/19 03:30:12;;;;;;;2.08;1.10;;;2.30;37.20;;;;;;4945119;29;20883;-71
2023/01/19 03:32:47;;;;;;;7.75;2.40;;;2.30;37.20;;;;;;4955100;28;20286;-70
2023/01/19 03:35:15;;;;;;;2.40;1.30;;;2.40;36.60;;;;;;4954964;28;20720;-71
2023/01/19 03:37:44;;;;;;;3.30;2.10;;;2.40;36.10;;;;;;4951528;28;20744;-71
2023/01/19 03:40:11;;;;;;;2.00;1.00;;;2.40;36.60;;;;;;4949721;28;20187;-70
2023/01/19 03:42:39;;;;;;;2.45;1.58;;;2.40;36.50;;;;;;4954872;28;20180;-70
2023/01/19 03:45:06;;;;;;;2.33;1.30;;;2.20;37.40;;;;;;4954862;28;20222;-70
2023/01/19 03:47:32;;;;;;;2.00;1.10;;;2.00;38.50;;;;;;4954995;28;20202;-70
2023/01/19 03:50:01;;;;;;;2.20;1.23;;;2.10;37.50;;;;;;4948432;28;20180;-69
2023/01/19 03:52:28;;;;;;;2.10;1.20;;;2.20;37.50;;;;;;4953514;29;20187;-71
2023/01/19 03:54:54;;;;;;;2.00;1.10;;;2.20;38.00;;;;;;4954615;28;20176;-70
2023/01/19 03:57:21;;;;;;;1.90;1.00;;;2.10;38.30;;;;;;4954785;28;20690;-70
2023/01/19 03:59:46;;;;;;;2.00;1.10;;;2.20;38.10;;;;;;4954666;28;20415;-71
2023/01/19 04:02:12;;;;;;;2.17;1.30;;;2.20;38.60;;;;;;4949222;28;20250;-70
2023/01/19 04:04:38;;;;;;;2.13;1.37;;;2.20;38.60;;;;;;4953629;28;20478;-70
2023/01/19 04:07:04;;;;;;;2.03;1.15;;;2.10;38.60;;;;;;4954288;29;20219;-70
2023/01/19 04:09:29;;;;;;;2.30;1.53;;;1.90;39.20;;;;;;4954548;29;20179;-70
2023/01/19 04:11:56;;;;;;;2.63;1.37;;;1.90;39.80;;;;;;4949672;29;20194;-70
2023/01/19 04:14:21;;;;;;;1.90;1.10;;;1.70;40.50;;;;;;4953268;29;20171;-71
2023/01/19 04:16:47;;;;;;;1.90;1.00;;;1.80;41.00;;;;;;4954289;29;20649;-70
2023/01/19 04:19:13;;;;;;;2.30;1.50;;;1.90;39.60;;;;;;4953735;29;20928;-70
2023/01/19 04:21:38;;;;;;;2.03;1.10;;;1.90;39.70;;;;;;4951476;29;20703;-68
2023/01/19 04:24:04;;;;;;;2.00;1.20;;;2.20;38.60;;;;;;4951416;29;20239;-71
2023/01/19 04:26:30;;;;;;;1.90;1.10;;;2.60;36.90;;;;;;4954307;28;20237;-70
2023/01/19 04:28:56;;;;;;;2.37;1.40;;;2.50;37.00;;;;;;4954176;28;20777;-70
2023/01/19 04:31:22;;;;;;;1.95;1.05;;;2.50;36.90;;;;;;4953281;28;20195;-70
2023/01/19 04:33:48;;;;;;;2.00;1.10;;;2.40;36.80;;;;;;4946543;28;20201;-70
2023/01/19 04:36:13;;;;;;;2.00;1.10;;;2.20;37.60;;;;;;4953362;28;20194;-70
2023/01/19 04:38:39;;;;;;;3.37;1.97;;;1.90;38.00;;;;;;4953884;28;20415;-70
2023/01/19 04:41:05;;;;;;;2.00;1.10;;;1.60;38.90;;;;;;4954336;29;20179;-70
2023/01/19 04:43:30;;;;;;;2.00;1.10;;;1.30;39.50;;;;;;4945147;29;20187;-69
2023/01/19 04:45:56;;;;;;;3.47;1.57;;;1.30;40.10;;;;;;4940225;29;20195;-70
2023/01/19 04:48:21;;;;;;;13.73;3.40;;;1.50;39.80;;;;;;4951796;29;20654;-70
2023/01/19 04:50:49;;;;;;;2.10;1.20;;;1.70;39.60;;;;;;4954326;28;20266;-70
2023/01/19 04:53:15;;;;;;;4.05;2.47;;;1.60;39.50;;;;;;4951163;29;20197;-69
2023/01/19 04:55:41;;;;;;;2.10;1.30;;;1.70;40.10;;;;;;4951959;29;20583;-69
2023/01/19 04:58:06;;;;;;;2.50;1.40;;;2.00;38.90;;;;;;4953730;28;20206;-69
2023/01/19 05:00:32;;;;;;;2.10;1.20;;;2.10;38.50;;;;;;4953937;29;20239;-70
2023/01/19 05:02:58;;;;;;;4.67;3.20;;;2.10;38.60;;;;;;4953344;29;20419;-70
2023/01/19 05:05:23;;;;;;;1.90;1.10;;;2.10;38.70;;;;;;4950516;29;20210;-69
2023/01/19 05:07:49;;;;;;;2.00;1.20;;;2.20;38.90;;;;;;4954295;28;20223;-69
2023/01/19 05:10:15;;;;;;;2.00;1.20;;;2.20;39.00;;;;;;4955099;29;20255;-69
2023/01/19 05:12:41;;;;;;;2.33;1.40;;;2.20;38.80;;;;;;4953782;29;20175;-69
2023/01/19 05:15:08;;;;;;;1.97;1.20;;;2.20;38.60;;;;;;4950192;29;20442;-68
2023/01/19 05:17:34;;;;;;;2.08;1.20;;;2.20;38.90;;;;;;4954064;29;20856;-70
2023/01/19 05:19:59;;;;;;;5.93;2.80;;;2.20;37.80;;;;;;4947150;29;20207;-71
2023/01/19 05:22:25;;;;;;;1.80;1.10;;;2.30;38.00;;;;;;4938871;29;20459;-69
2023/01/19 05:24:51;;;;;;;2.10;1.30;;;2.50;35.90;;;;;;4921374;29;20690;-70
2023/01/19 05:27:16;;;;;;;3.50;2.07;;;2.50;36.60;;;;;;4948469;29;20211;-70
2023/01/19 05:29:42;;;;;;;2.57;1.50;;;2.30;38.00;;;;;;4953648;29;20183;-70
2023/01/19 05:32:07;;;;;;;1.90;1.10;;;2.30;38.80;;;;;;4953502;28;20190;-69
2023/01/19 05:34:33;;;;;;;1.80;1.10;;;2.40;38.30;;;;;;4953343;28;20183;-70
2023/01/19 05:36:59;;;;;;;2.30;1.60;;;2.40;39.30;;;;;;4945601;28;20215;-69
2023/01/19 05:39:25;;;;;;;4.17;2.37;;;2.40;39.40;;;;;;4953341;29;20187;-70
2023/01/19 05:41:51;;;;;;;2.10;1.33;;;2.50;38.50;;;;;;4953204;29;20191;-69
2023/01/19 05:44:16;;;;;;;1.80;1.10;;;2.40;37.90;;;;;;4949664;29;20210;-69
2023/01/19 05:46:42;;;;;;;1.90;1.00;;;2.30;36.90;;;;;;4946361;29;20473;-68
2023/01/19 05:49:08;;;;;;;1.80;1.03;;;2.40;37.80;;;;;;4948717;29;20493;-69
2023/01/19 05:51:37;;;;;;;2.28;1.55;;;2.50;37.90;;;;;;4952879;29;20601;-69
2023/01/19 05:54:04;;;;;;;1.90;1.20;;;2.50;37.70;;;;;;4951507;28;20201;-70
2023/01/19 05:56:29;;;;;;;2.00;1.20;;;2.50;37.90;;;;;;4945142;29;20648;-69
2023/01/19 05:58:55;;;;;;;1.90;1.20;;;2.50;37.60;;;;;;4948472;29;20207;-70
2023/01/19 06:01:21;;;;;;;2.00;1.30;;;2.50;37.50;;;;;;4953056;28;20179;-70
2023/01/19 06:03:47;;;;;;;2.33;1.60;;;2.50;37.40;;;;;;4953502;28;20223;-69
2023/01/19 06:06:14;;;;;;;1.90;1.10;;;2.40;37.50;;;;;;4945812;29;20234;-69
2023/01/19 06:08:39;;;;;;;2.65;1.58;;;2.40;37.20;;;;;;4954668;29;20167;-70
2023/01/19 06:11:06;;;;;;;2.00;1.10;;;2.50;36.90;;;;;;4955833;29;20198;-70
2023/01/19 06:13:32;;;;;;;2.00;1.17;;;2.50;36.20;;;;;;4956447;28;20167;-70
2023/01/19 06:16:01;;;;;;;2.43;1.30;;;2.40;36.60;;;;;;4949691;29;20191;-69
2023/01/19 06:18:27;;;;;;;2.00;1.20;;;2.20;37.20;;;;;;4957124;29;20926;-69
2023/01/19 06:20:57;;;;;;;3.47;1.98;;;2.00;38.00;;;;;;4947624;29;20684;-70
2023/01/19 06:23:24;;;;;;;2.00;1.10;;;2.30;36.60;;;;;;4956205;29;20627;-70
2023/01/19 06:25:50;;;;;;;3.15;1.30;;;2.40;36.20;;;;;;4953475;28;20223;-70
2023/01/19 06:28:16;;;;;;;5.82;2.47;;;2.30;36.30;;;;;;4955739;29;20199;-74
2023/01/19 06:30:42;;;;;;;3.90;1.50;;;2.10;36.70;;;;;;4953199;29;20234;-76
2023/01/19 06:33:08;;;;;;;2.00;1.10;;;2.20;36.20;;;;;;4956129;29;20422;-76
2023/01/19 06:35:34;;;;;;;2.20;1.30;;;2.20;36.90;;;;;;4955277;29;20719;-76
2023/01/19 06:38:00;;;;;;;2.00;1.00;;;2.00;36.30;;;;;;4952879;29;20466;-76
2023/01/19 06:40:25;;;;;;;2.17;1.20;;;1.90;37.60;;;;;;4955196;29;20188;-73
2023/01/19 06:42:51;;;;;;;2.30;1.40;;;1.80;37.30;;;;;;4953692;29;20187;-70
2023/01/19 06:45:17;;;;;;;2.63;1.40;;;2.00;37.20;;;;;;4948886;28;20680;-71
2023/01/19 06:47:45;;;;;;;2.10;1.13;;;2.10;36.70;;;;;;4953066;28;20462;-71
2023/01/19 06:50:11;;;;;;;2.03;1.05;;;2.10;36.10;;;;;;4956004;29;20786;-71
2023/01/19 06:52:41;;;;;;;2.30;1.37;;;1.90;36.70;;;;;;4952560;29;20266;-71
2023/01/19 06:55:09;;;;;;;2.10;1.10;;;2.00;36.30;;;;;;4951483;29;20198;-71
2023/01/19 06:57:37;;;;;;;2.30;1.40;;;2.10;35.90;;;;;;4955832;29;20199;-70
2023/01/19 07:00:06;;;;;;;2.00;1.00;;;2.20;35.50;;;;;;4947646;28;20191;-71
2023/01/19 07:02:33;;;;;;;2.05;1.10;;;2.10;35.50;;;;;;4949943;29;20261;-70
2023/01/19 07:04:58;;;;;;;2.00;1.10;;;1.80;36.10;;;;;;4955595;28;20284;-71
2023/01/19 07:07:25;;;;;;;2.40;1.50;;;1.80;36.40;;;;;;4955674;28;20215;-71
2023/01/19 07:09:50;;;;;;;2.10;1.10;;;1.70;36.80;;;;;;4948887;28;20176;-72
2023/01/19 07:12:16;;;;;;;2.20;1.27;;;1.90;36.50;;;;;;4942149;29;20195;-70
2023/01/19 07:14:42;;;;;;;2.17;1.10;;;1.80;36.10;;;;;;4956687;28;20191;-70
2023/01/19 07:17:07;;;;;;;2.10;1.10;;;1.60;36.70;;;;;;4955592;28;20230;-70
2023/01/19 07:19:34;;;;;;;2.20;1.23;;;1.50;37.40;;;;;;4969512;28;20581;-71
2023/01/19 07:22:00;;;;;;;2.60;1.30;;;1.20;37.70;;;;;;4947370;29;20714;-71
2023/01/19 07:24:26;;;;;;;2.30;1.35;;;1.20;38.30;;;;;;4949482;29;20295;-70
2023/01/19 07:26:51;;;;;;;2.80;1.60;;;1.20;38.10;;;;;;4955151;29;20282;-71
2023/01/19 07:29:17;;;;;;;2.50;1.50;;;1.10;38.90;;;;;;4955274;28;20262;-71
2023/01/19 07:31:42;;;;;;;2.40;1.37;;;1.10;38.70;;;;;;4973040;28;20175;-70
2023/01/19 07:34:08;;;;;;;3.10;1.87;;;1.20;38.50;;;;;;4962421;28;20195;-70
2023/01/19 07:36:34;;;;;;;2.10;1.13;;;1.30;38.20;;;;;;4953113;29;20245;-71
2023/01/19 07:39:00;;;;;;;2.50;1.35;;;1.40;38.10;;;;;;4936032;29;20263;-71
2023/01/19 07:41:26;;;;;;;3.97;2.37;;;1.60;37.50;;;;;;4936419;29;20267;-71
2023/01/19 07:43:52;;;;;;;4.50;2.33;;;1.60;37.00;;;;;;4936791;29;20218;-72
2023/01/19 07:46:17;;;;;;;4.10;1.73;;;1.80;36.00;;;;;;4953009;29;20621;-71
2023/01/19 07:48:43;;;;;;;2.10;1.00;;;1.70;37.00;;;;;;4954733;29;20410;-71
2023/01/19 07:51:11;;;;;;;2.37;1.50;;;1.80;36.00;;;;;;4945728;29;20205;-70
2023/01/19 07:53:38;;;;;;;2.90;1.70;;;1.80;36.40;;;;;;4941167;28;20438;-71
2023/01/19 07:56:06;;;;;;;2.30;1.40;;;1.80;35.90;;;;;;4939278;28;20223;-72
2023/01/19 07:58:32;;;;;;;2.10;1.20;;;1.80;36.10;;;;;;4931586;29;20294;-71
2023/01/19 08:00:57;;;;;;;2.10;1.10;;;1.90;35.50;;;;;;4954465;29;20268;-70
2023/01/19 08:03:23;;;;;;;2.07;1.10;;;1.60;36.50;;;;;;4954607;29;20249;-70
2023/01/19 08:05:50;;;;;;;3.30;1.73;;;1.40;37.40;;;;;;4992546;23;20293;-68
2023/01/19 08:08:17;;;;;;;2.10;1.20;;;1.50;37.50;;;;;;4952246;28;20250;-69
2023/01/19 08:10:42;;;;;;;2.42;1.63;;;1.60;37.00;;;;;;4935585;29;20184;-68
2023/01/19 08:13:08;;;;;;;2.00;1.10;;;1.80;37.00;;;;;;4935400;29;20194;-69
2023/01/19 08:15:34;;;;;;;4.70;2.03;;;2.10;35.80;;;;;;4953523;28;20545;-68
2023/01/19 08:18:04;;;;;;;2.00;1.20;;;2.10;36.10;;;;;;4953966;29;20257;-68
2023/01/19 08:20:30;;;;;;;1.90;1.20;;;2.00;36.60;;;;;;4954494;29;20188;-68
2023/01/19 08:22:59;;;;;;;3.50;1.48;;;2.10;36.60;;;;;;4953070;29;20662;-68
2023/01/19 08:25:30;;;;;;;2.30;1.60;;;2.20;37.00;;;;;;4951442;28;20592;-70
2023/01/19 08:27:56;;;;;;;3.10;1.77;;;2.10;36.30;;;;;;4953151;28;20235;-68
2023/01/19 08:30:25;;;;;;;4.53;1.83;;;2.20;36.10;;;;;;4951957;29;20187;-68
2023/01/19 08:32:51;;;;;;;2.67;1.88;;;1.50;36.60;;;;;;4953730;29;20183;-69
2023/01/19 08:35:17;;;;;;;1.90;1.20;;;0.40;40.40;;;;;;4951263;28;20207;-69
2023/01/19 08:37:43;;;;;;;1.90;1.10;;;0.30;41.20;;;;;;4948315;29;20188;-72
2023/01/19 08:40:09;;;;;;;3.63;2.23;;;0.30;39.90;;;;;;4951616;29;20667;-70
2023/01/19 08:42:34;;;;;;;2.58;1.80;;;0.10;41.00;;;;;;4948681;29;20519;-71
2023/01/19 08:45:00;;;;;;;1.93;1.10;;;0.60;39.70;;;;;;4944710;29;20219;-70
2023/01/19 08:47:26;;;;;;;2.50;1.70;;;0.90;38.70;;;;;;4945778;29;20547;-70
2023/01/19 08:49:51;;;;;;;2.00;1.30;;;0.60;38.70;;;;;;4936272;29;20242;-70
2023/01/19 08:52:17;;;;;;;1.90;1.10;;;0.90;38.70;;;;;;4953473;29;20183;-72
2023/01/19 08:54:42;;;;;;;2.20;1.50;;;1.50;37.60;;;;;;4953383;28;20286;-69
2023/01/19 08:57:08;;;;;;;2.23;1.40;;;2.00;35.50;;;;;;4953566;29;20182;-69
2023/01/19 08:59:34;;;;;;;2.10;1.50;;;2.10;35.00;;;;;;4953461;29;20546;-69
2023/01/19 09:02:00;;;;;;;2.38;1.63;;;2.10;34.90;;;;;;4936203;29;20176;-69
2023/01/19 09:04:25;;;;;;;1.80;1.20;;;2.50;34.00;;;;;;4954971;28;20218;-69
2023/01/19 09:06:52;;;;;;;2.27;1.50;;;2.70;34.30;;;;;;4955513;29;20163;-69
2023/01/19 09:09:17;;;;;;;2.25;1.50;;;2.90;32.40;;;;;;4955159;29;20179;-70
2023/01/19 09:11:43;;;;;;;1.97;1.30;;;3.00;33.40;;;;;;4955020;29;20190;-69
2023/01/19 09:14:08;;;;;;;3.30;1.80;;;3.00;31.20;;;;;;4955472;28;20242;-69
2023/01/19 09:16:34;;;;;;;1.90;1.20;;;3.00;31.90;;;;;;4954868;29;20179;-69
2023/01/19 09:19:00;;;;;;;6.30;2.03;;;2.60;32.10;;;;;;4938632;29;20234;-69
2023/01/19 09:21:25;;;;;;;1.80;1.20;;;2.00;34.00;;;;;;4955437;29;20203;-69
2023/01/19 09:23:51;;;;;;;1.80;1.20;;;2.30;33.10;;;;;;4953705;28;20651;-69
2023/01/19 09:26:16;;;;;;;1.80;1.20;;;2.20;33.40;;;;;;4937224;29;20179;-69
2023/01/19 09:28:42;;;;;;;3.50;2.00;;;2.40;34.10;;;;;;4954115;29;20599;-70
2023/01/19 09:31:08;;;;;;;2.50;1.67;;;3.30;32.30;;;;;;4956460;29;20182;-69
2023/01/19 09:33:34;;;;;;;2.20;1.40;;;3.80;30.20;;;;;;4955828;29;20167;-69
2023/01/19 09:36:01;;;;;;;1.70;1.10;;;4.00;29.80;;;;;;4938330;29;20816;-70
2023/01/19 09:38:30;;;;;;;2.47;1.80;;;4.00;30.80;;;;;;4952496;28;20554;-69
2023/01/19 09:40:56;;;;;;;1.80;1.20;;;3.80;30.60;;;;;;4953042;29;20168;-69
2023/01/19 09:43:39;;;;;;;2.37;1.60;;;3.10;33.00;;;;;;4955210;29;20276;-69
2023/01/19 09:46:14;;;;;;;2.10;1.30;;;3.20;32.80;;;;;;4938184;29;20426;-70
2023/01/19 09:48:57;;;;;;;1.83;1.17;;;3.20;33.30;;;;;;4939423;29;20297;-69
2023/01/19 09:51:25;;;;;;;2.10;1.42;;;3.20;31.90;;;;;;4955693;29;20171;-70
2023/01/19 09:54:13;;;;;;;4.30;1.73;;;3.20;33.50;;;;;;4954781;28;20175;-69
2023/01/19 09:56:39;;;;;;;2.30;1.60;;;3.40;32.60;;;;;;4937641;29;20179;-70
2023/01/19 09:59:20;;;;;;;2.38;1.40;;;3.80;32.00;;;;;;4953599;29;20180;-70
2023/01/19 10:01:54;;;;;;;2.05;1.40;;;4.30;32.10;;;;;;4937198;29;20179;-69
2023/01/19 10:04:26;;;;;;;1.80;1.10;;;4.70;31.40;;;;;;4936949;29;20669;-69
2023/01/19 10:07:16;;;;;;;2.45;1.45;;;4.90;31.00;;;;;;4954062;29;20250;-70
2023/01/19 10:09:48;;;;;;;2.55;1.50;;;5.20;30.10;;;;;;4933597;29;20191;-69
2023/01/19 10:12:43;;;;;;;2.50;1.85;;;5.30;30.30;;;;;;4954720;29;20207;-69
2023/01/19 10:15:23;;;;;;;2.38;1.65;;;5.50;30.50;;;;;;4918690;29;20220;-69
2023/01/19 10:18:16;;;;;;;2.00;1.30;;;5.80;29.90;;;;;;4954080;29;20152;-70
2023/01/19 10:21:14;;;;;;;2.00;1.30;;;6.20;29.40;;;;;;4954475;29;20207;-69
2023/01/19 10:23:54;;;;;;;3.67;2.35;;;5.70;30.40;;;;;;4948835;28;20199;-70
2023/01/19 10:26:23;;;;;;;1.80;1.10;;;5.00;31.50;;;;;;4954118;29;20605;-69
2023/01/19 10:28:52;;;;;;;2.17;1.52;;;4.90;31.50;;;;;;4954013;29;20558;-70
2023/01/19 10:31:22;;;;;;;2.35;1.55;;;3.90;32.70;;;;;;4955160;29;20179;-70
2023/01/19 10:33:51;;;;;;;2.45;1.30;;;3.80;33.90;;;;;;4953919;28;20251;-70
2023/01/19 10:36:38;;;;;;;2.17;1.50;;;4.00;33.70;;;;;;4954891;29;20219;-70
2023/01/19 10:39:05;;;;;;;2.20;1.45;;;3.80;33.60;;;;;;4955171;29;20449;-70
2023/01/19 10:41:48;;;;;;;3.25;1.40;;;4.10;34.50;;;;;;4954905;29;20537;-70
2023/01/19 10:44:33;;;;;;;2.00;1.75;;;4.90;32.80;;;;;;4953890;28;20262;-70
2023/01/19 10:47:00;;;;;;;2.85;1.83;;;4.20;31.60;;;;;;4954076;29;20610;-70
2023/01/19 10:49:30;;;;;;;2.03;1.30;;;3.40;34.30;;;;;;4954757;28;20246;-69
2023/01/19 10:51:58;;;;;;;1.80;1.10;;;3.10;34.10;;;;;;4957621;29;20226;-69
2023/01/19 10:54:25;;;;;;;2.10;1.10;;;3.10;35.60;;;;;;4956596;28;20577;-70
2023/01/19 10:56:57;;;;;;;2.40;1.38;;;3.00;33.60;;;;;;4956581;29;20175;-70
2023/01/19 10:59:39;;;;;;;2.08;1.40;;;3.50;33.70;;;;;;4956732;29;20175;-70
2023/01/19 11:02:19;;;;;;;1.90;1.20;;;3.60;33.50;;;;;;4956759;29;20572;-70
2023/01/19 11:04:47;;;;;;;2.40;1.77;;;3.50;32.60;;;;;;4955910;28;20219;-69
2023/01/19 11:07:24;;;;;;;1.85;1.15;;;3.30;33.30;;;;;;4939093;29;20548;-70
2023/01/19 11:10:10;;;;;;;3.53;2.15;;;4.20;32.00;;;;;;4956524;29;20639;-70
2023/01/19 11:12:59;;;;;;;2.20;1.48;;;4.20;30.30;;;;;;4956019;29;20183;-70
2023/01/19 11:15:39;;;;;;;1.80;1.10;;;4.80;30.00;;;;;;4955507;28;20219;-70
2023/01/19 11:18:05;;;;;;;1.95;1.25;;;5.00;29.40;;;;;;4955759;29;20183;-70
2023/01/19 11:20:50;;;;;;;2.25;1.52;;;4.40;29.80;;;;;;4955646;29;20175;-70
2023/01/19 11:23:27;;;;;;;2.95;1.52;;;4.20;32.90;;;;;;4955467;29;20166;-70
2023/01/19 11:25:57;;;;;;;2.00;1.30;;;4.20;33.60;;;;;;4955315;28;20211;-70
2023/01/19 11:28:50;;;;;;;2.10;1.30;;;3.90;35.00;;;;;;4955101;29;20176;-70
2023/01/19 11:31:17;;;;;;;2.33;1.65;;;4.30;34.30;;;;;;4953438;28;20199;-70
2023/01/19 11:33:46;;;;;;;1.80;1.10;;;3.90;34.70;;;;;;4954462;28;20194;-69
2023/01/19 11:36:28;;;;;;;1.95;1.20;;;3.90;35.30;;;;;;4954969;29;20171;-70
2023/01/19 11:39:22;;;;;;;1.90;1.20;;;4.40;35.00;;;;;;4954737;29;20179;-70
2023/01/19 11:41:54;;;;;;;1.85;1.10;;;4.70;34.80;;;;;;4950815;29;20215;-70
2023/01/19 11:44:31;;;;;;;2.00;1.27;;;5.00;33.30;;;;;;4948098;28;20786;-70
2023/01/19 11:46:59;;;;;;;3.65;2.00;;;5.30;32.10;;;;;;4953455;28;20669;-69
2023/01/19 11:49:49;;;;;;;2.20;1.45;;;5.40;32.30;;;;;;4952151;29;20188;-70
2023/01/19 11:52:41;;;;;;;2.53;1.52;;;4.70;33.10;;;;;;4949777;28;20189;-70
2023/01/19 11:55:25;;;;;;;2.00;1.30;;;4.50;34.20;;;;;;4949921;29;20223;-68
2023/01/19 11:57:52;;;;;;;2.00;1.20;;;4.80;33.80;;;;;;4951873;29;20183;-70
2023/01/19 12:00:39;;;;;;;2.00;1.30;;;4.50;33.80;;;;;;4952886;28;20193;-69
2023/01/19 12:03:15;;;;;;;2.40;1.63;;;4.60;33.60;;;;;;4951776;29;20214;-71
2023/01/19 12:05:52;;;;;;;2.20;1.50;;;4.80;33.90;;;;;;4951122;28;20757;-71
2023/01/19 12:08:25;;;;;;;1.80;1.10;;;5.10;32.30;;;;;;4949531;28;20661;-70
2023/01/19 12:10:54;;;;;;;2.00;1.30;;;5.30;32.00;;;;;;4948487;28;20183;-71
2023/01/19 12:13:22;;;;;;;2.03;1.30;;;5.20;31.30;;;;;;4950791;28;20194;-70
2023/01/19 12:16:06;;;;;;;1.90;1.20;;;5.10;31.60;;;;;;4953579;28;20246;-70
2023/01/19 12:18:38;;;;;;;1.92;1.25;;;5.50;31.50;;;;;;4949897;29;20192;-71
2023/01/19 12:21:04;;;;;;;1.90;1.30;;;5.90;30.60;;;;;;4952249;28;20250;-71
2023/01/19 12:23:40;;;;;;;2.00;1.30;;;6.40;30.20;;;;;;4952566;29;20647;-70
2023/01/19 12:26:28;;;;;;;1.90;1.20;;;6.20;30.00;;;;;;4945214;29;20988;-71
2023/01/19 12:28:59;;;;;;;1.90;1.20;;;6.50;30.30;;;;;;4950231;28;20290;-71
2023/01/19 12:31:25;;;;;;;1.80;1.10;;;6.70;29.70;;;;;;4953365;29;20185;-71
2023/01/19 12:33:51;;;;;;;1.80;1.10;;;6.00;30.00;;;;;;4950980;29;20192;-71
2023/01/19 12:36:28;;;;;;;1.97;1.30;;;5.90;31.70;;;;;;4952900;29;20183;-70
2023/01/19 12:39:00;;;;;;;2.30;1.40;;;6.30;29.80;;;;;;4950912;28;20672;-71
2023/01/19 12:41:37;;;;;;;1.90;1.10;;;6.80;29.00;;;;;;4950660;29;20184;-71
2023/01/19 12:44:12;;;;;;;2.00;1.30;;;6.90;30.70;;;;;;4951129;28;20305;-71
2023/01/19 12:46:53;;;;;;;1.80;1.10;;;6.80;29.50;;;;;;4944038;29;21660;-71
2023/01/19 12:49:25;;;;;;;1.85;1.10;;;5.30;31.90;;;;;;4952446;29;20596;-71
2023/01/19 12:52:10;;;;;;;1.90;1.20;;;5.50;32.60;;;;;;4947151;29;20168;-71
2023/01/19 12:54:39;;;;;;;1.90;1.20;;;5.40;32.30;;;;;;4951085;28;20285;-71
2023/01/19 12:57:21;;;;;;;2.95;1.90;;;6.40;32.60;;;;;;4951906;28;20193;-71
2023/01/19 12:59:53;;;;;;;2.08;1.30;;;6.90;31.10;;;;;;4952071;29;20326;-70
2023/01/19 13:02:19;;;;;;;1.88;1.10;;;7.30;29.00;;;;;;4952270;29;20187;-71
2023/01/19 13:05:29;;;;;;;2.10;1.40;;;7.40;29.70;;;;;;4941651;29;20592;-71
2023/01/19 13:08:01;;;;;;;2.00;1.25;;;7.30;28.60;;;;;;4939717;29;20249;-71
2023/01/19 13:10:57;;;;;;;2.00;1.20;;;6.90;28.30;;;;;;4943835;29;20182;-70
2023/01/19 13:13:25;;;;;;;2.00;1.30;;;6.00;30.40;;;;;;4950449;28;20210;-71
2023/01/19 13:15:52;;;;;;;2.30;1.30;;;6.00;31.10;;;;;;4946526;28;20709;-70
2023/01/19 13:18:27;;;;;;;1.90;1.13;;;6.50;30.30;;;;;;4949865;28;20186;-69
2023/01/19 13:20:57;;;;;;;2.00;1.30;;;6.60;29.10;;;;;;4950392;29;20621;-69